createdAt,value
2022-09-14T00:00:11.149Z,18.22
2022-09-14T00:02:37.791Z,18.20
2022-09-14T00:05:04.431Z,18.32
2022-09-14T00:07:30.878Z,18.29
2022-09-14T00:09:57.290Z,18.21
2022-09-14T00:12:25.008Z,18.13
2022-09-14T00:14:51.494Z,18.25
2022-09-14T00:17:18.031Z,18.18
2022-09-14T00:19:44.494Z,18.26
2022-09-14T00:22:10.956Z,18.30
2022-09-14T00:24:37.387Z,18.42
2022-09-14T00:27:04.042Z,18.30
2022-09-14T00:29:30.897Z,18.16
2022-09-14T00:31:59.763Z,18.14
2022-09-14T00:34:27.205Z,17.96
2022-09-14T00:36:54.297Z,17.95
2022-09-14T00:39:21.769Z,18.09
2022-09-14T00:41:48.716Z,18.13
2022-09-14T00:44:15.141Z,18.01
2022-09-14T00:46:43.305Z,18.04
2022-09-14T00:49:25.584Z,18.04
2022-09-14T00:52:03.874Z,17.80
2022-09-14T00:54:30.646Z,17.82
2022-09-14T00:57:01.512Z,17.72
2022-09-14T00:59:30.046Z,17.84
2022-09-14T01:01:56.853Z,17.88
2022-09-14T01:04:24.130Z,17.72
2022-09-14T01:07:02.823Z,17.84
2022-09-14T01:09:38.131Z,17.99
2022-09-14T01:12:20.719Z,17.94
2022-09-14T01:15:05.988Z,17.98
2022-09-14T01:17:38.505Z,18.05
2022-09-14T01:20:11.124Z,17.95
2022-09-14T01:22:44.481Z,17.94
2022-09-14T01:25:23.372Z,17.95
2022-09-14T01:27:51.654Z,17.96
2022-09-14T01:30:20.661Z,18.16
2022-09-14T01:33:08.349Z,18.07
2022-09-14T01:35:40.677Z,18.06
2022-09-14T01:38:26.934Z,18.16
2022-09-14T01:40:54.543Z,18.26
2022-09-14T01:43:30.082Z,18.28
2022-09-14T01:45:59.672Z,18.04
2022-09-14T01:48:33.069Z,17.98
2022-09-14T01:51:00.945Z,18.09
2022-09-14T01:53:34.699Z,17.87
2022-09-14T01:56:15.178Z,17.99
2022-09-14T01:58:47.749Z,17.96
2022-09-14T02:01:19.193Z,18.08
2022-09-14T02:03:52.000Z,18.22
2022-09-14T02:06:25.110Z,18.07
2022-09-14T02:08:52.178Z,18.02
2022-09-14T02:11:18.739Z,18.07
2022-09-14T02:13:45.218Z,17.84
2022-09-14T02:16:12.279Z,17.80
2022-09-14T02:18:39.764Z,17.92
2022-09-14T02:21:10.683Z,17.97
2022-09-14T02:23:37.606Z,17.91
2022-09-14T02:26:04.705Z,17.94
2022-09-14T02:28:31.241Z,18.16
2022-09-14T02:31:19.405Z,18.17
2022-09-14T02:33:52.089Z,17.89
2022-09-14T02:36:25.596Z,17.98
2022-09-14T02:39:15.303Z,18.08
2022-09-14T02:41:42.076Z,18.10
2022-09-14T02:44:27.641Z,17.94
2022-09-14T02:47:06.096Z,18.03
2022-09-14T02:49:58.673Z,18.05
2022-09-14T02:52:32.201Z,18.08
2022-09-14T02:55:02.369Z,17.95
2022-09-14T02:57:28.805Z,17.89
2022-09-14T02:59:55.398Z,18.04
2022-09-14T03:02:22.090Z,18.00
2022-09-14T03:04:48.700Z,18.15
2022-09-14T03:07:15.187Z,18.06
2022-09-14T03:09:41.621Z,17.82
2022-09-14T03:12:08.059Z,17.74
2022-09-14T03:14:34.728Z,17.69
2022-09-14T03:17:01.160Z,17.78
2022-09-14T03:19:27.576Z,17.77
2022-09-14T03:21:54.018Z,17.89
2022-09-14T03:24:20.516Z,18.01
2022-09-14T03:26:47.281Z,18.01
2022-09-14T03:29:13.678Z,18.08
2022-09-14T03:31:40.225Z,18.18
2022-09-14T03:34:06.846Z,17.88
2022-09-14T03:36:33.311Z,17.79
2022-09-14T03:39:01.682Z,17.72
2022-09-14T03:41:28.533Z,17.68
2022-09-14T03:43:55.210Z,17.68
2022-09-14T03:46:23.282Z,17.80
2022-09-14T03:48:50.009Z,17.83
2022-09-14T03:51:16.863Z,17.89
2022-09-14T03:53:44.789Z,17.69
2022-09-14T03:56:12.901Z,17.65
2022-09-14T03:58:39.543Z,17.69
2022-09-14T04:01:14.593Z,17.72
2022-09-14T04:03:41.585Z,17.68
2022-09-14T04:06:08.399Z,17.67
2022-09-14T04:08:38.164Z,17.79
2022-09-14T04:11:08.610Z,17.72
2022-09-14T04:13:35.058Z,17.75
2022-09-14T04:16:02.036Z,17.91
2022-09-14T04:18:28.593Z,17.92
2022-09-14T04:20:58.532Z,17.99
2022-09-14T04:23:25.489Z,17.68
2022-09-14T04:25:52.577Z,17.74
2022-09-14T04:28:20.498Z,17.82
2022-09-14T04:30:57.269Z,17.95
2022-09-14T04:33:24.210Z,17.83
2022-09-14T04:35:58.181Z,17.86
2022-09-14T04:38:24.633Z,17.89
2022-09-14T04:40:51.078Z,18.00
2022-09-14T04:43:17.485Z,17.64
2022-09-14T04:45:44.424Z,17.64
2022-09-14T04:48:11.088Z,17.75
2022-09-14T04:50:37.748Z,17.86
2022-09-14T04:53:04.391Z,17.89
2022-09-14T04:55:30.889Z,17.81
2022-09-14T04:57:57.324Z,17.80
2022-09-14T05:00:23.787Z,17.69
2022-09-14T05:02:50.353Z,17.73
2022-09-14T05:05:16.789Z,17.85
2022-09-14T05:07:43.192Z,17.93
2022-09-14T05:10:09.736Z,18.02
2022-09-14T05:12:36.146Z,18.04
2022-09-14T05:15:02.657Z,18.19
2022-09-14T05:17:29.147Z,18.04
2022-09-14T05:19:55.631Z,18.19
2022-09-14T05:22:22.349Z,18.30
2022-09-14T05:24:48.845Z,18.17
2022-09-14T05:27:15.279Z,18.20
2022-09-14T05:29:41.944Z,18.26
2022-09-14T05:32:08.400Z,18.23
2022-09-14T05:34:34.874Z,18.37
2022-09-14T05:37:01.306Z,18.30
2022-09-14T05:39:27.803Z,18.74
2022-09-14T05:41:54.270Z,18.63
2022-09-14T05:44:20.738Z,18.68
2022-09-14T05:46:47.229Z,18.73
2022-09-14T05:49:13.771Z,18.75
2022-09-14T05:51:40.216Z,18.91
2022-09-14T05:54:11.370Z,18.93
2022-09-14T05:56:38.014Z,18.95
2022-09-14T05:59:04.445Z,19.03
2022-09-14T06:01:32.658Z,19.26
2022-09-14T06:04:00.454Z,19.44
2022-09-14T06:06:26.971Z,19.70
2022-09-14T06:08:55.054Z,19.69
2022-09-14T06:11:23.593Z,19.81
2022-09-14T06:13:50.552Z,19.78
2022-09-14T06:16:18.905Z,19.70
2022-09-14T06:18:45.939Z,20.20
2022-09-14T06:21:16.744Z,20.40
2022-09-14T06:23:44.038Z,20.36
2022-09-14T06:26:10.823Z,19.93
2022-09-14T06:28:37.311Z,20.17
2022-09-14T06:31:04.522Z,20.15
2022-09-14T06:33:31.492Z,20.26
2022-09-14T06:35:59.171Z,20.37
2022-09-14T06:38:26.481Z,19.90
2022-09-14T06:40:54.105Z,20.18
2022-09-14T06:43:20.604Z,20.31
2022-09-14T06:45:55.105Z,20.37
2022-09-14T06:48:21.591Z,20.45
2022-09-14T06:50:48.051Z,20.44
2022-09-14T06:53:14.526Z,20.59
2022-09-14T06:55:41.390Z,20.54
2022-09-14T06:58:09.469Z,20.94
2022-09-14T07:00:36.424Z,21.07
2022-09-14T07:03:03.001Z,21.72
2022-09-14T07:05:30.921Z,21.88
2022-09-14T07:07:57.681Z,21.67
2022-09-14T07:10:28.072Z,21.20
2022-09-14T07:12:54.932Z,21.64
2022-09-14T07:15:21.769Z,21.83
2022-09-14T07:17:48.185Z,22.91
2022-09-14T07:20:15.617Z,23.21
2022-09-14T07:22:42.349Z,24.05
2022-09-14T07:25:09.731Z,23.57
2022-09-14T07:27:38.658Z,23.93
2022-09-14T07:30:06.256Z,23.71
2022-09-14T07:32:32.714Z,24.26
2022-09-14T07:34:59.136Z,24.32
2022-09-14T07:37:25.611Z,24.50
2022-09-14T07:39:52.171Z,24.07
2022-09-14T07:42:18.608Z,23.42
2022-09-14T07:44:45.126Z,23.37
2022-09-14T07:47:11.694Z,23.65
2022-09-14T07:49:38.145Z,24.01
2022-09-14T07:52:04.610Z,24.25
2022-09-14T07:54:31.029Z,24.29
2022-09-14T07:56:57.840Z,23.73
2022-09-14T07:59:35.487Z,23.91
2022-09-14T08:02:02.495Z,23.95
2022-09-14T08:04:28.943Z,24.17
2022-09-14T08:06:55.324Z,24.04
2022-09-14T08:09:21.769Z,24.20
2022-09-14T08:11:48.156Z,23.93
2022-09-14T08:14:15.494Z,23.98
2022-09-14T08:16:42.139Z,24.74
2022-09-14T08:19:12.375Z,25.43
2022-09-14T08:21:41.718Z,25.45
2022-09-14T08:24:12.779Z,25.04
2022-09-14T08:26:40.774Z,25.55
2022-09-14T08:29:08.074Z,25.53
2022-09-14T08:31:38.943Z,25.64
2022-09-14T08:34:06.034Z,25.04
2022-09-14T08:36:33.648Z,24.42
2022-09-14T08:39:00.753Z,24.42
2022-09-14T08:41:29.072Z,24.23
2022-09-14T08:43:59.515Z,24.40
2022-09-14T08:46:29.885Z,24.64
2022-09-14T08:48:56.530Z,24.26
2022-09-14T08:51:23.344Z,24.45
2022-09-14T08:53:50.896Z,24.40
2022-09-14T08:56:19.049Z,25.01
2022-09-14T08:58:48.752Z,25.74
2022-09-14T09:01:28.602Z,26.10
2022-09-14T09:03:55.032Z,26.03
2022-09-14T09:06:36.501Z,26.27
2022-09-14T09:09:02.962Z,26.50
2022-09-14T09:11:34.542Z,26.13
2022-09-14T09:14:05.181Z,25.53
2022-09-14T09:16:31.661Z,25.53
2022-09-14T09:19:00.290Z,26.00
2022-09-14T09:21:35.463Z,26.57
2022-09-14T09:24:24.209Z,27.10
2022-09-14T09:26:50.693Z,27.20
2022-09-14T09:29:17.142Z,26.41
2022-09-14T09:32:03.874Z,26.62
2022-09-14T09:34:56.190Z,27.06
2022-09-14T09:37:51.756Z,27.08
2022-09-14T09:40:40.612Z,26.48
2022-09-14T09:43:09.229Z,26.79
2022-09-14T09:45:55.400Z,26.80
2022-09-14T09:48:27.807Z,26.88
2022-09-14T09:51:00.132Z,26.74
2022-09-14T09:53:27.223Z,27.20
2022-09-14T09:55:53.973Z,27.36
2022-09-14T09:58:31.400Z,27.33
2022-09-14T10:01:02.276Z,27.48
2022-09-14T10:03:34.003Z,27.34
2022-09-14T10:06:05.543Z,28.27
2022-09-14T10:08:34.898Z,28.41
2022-09-14T10:11:02.829Z,28.45
2022-09-14T10:13:34.402Z,29.18
2022-09-14T10:16:15.386Z,29.72
2022-09-14T10:18:51.962Z,28.94
2022-09-14T10:21:19.958Z,29.57
2022-09-14T10:23:46.594Z,30.44
2022-09-14T10:26:17.672Z,29.66
2022-09-14T10:28:45.706Z,29.56
2022-09-14T10:31:15.239Z,30.76
2022-09-14T10:33:42.196Z,29.89
2022-09-14T10:36:11.695Z,30.45
2022-09-14T10:38:41.357Z,30.71
2022-09-14T10:41:13.867Z,31.35
2022-09-14T10:43:52.347Z,31.55
2022-09-14T10:46:25.396Z,30.77
2022-09-14T10:49:10.402Z,30.97
2022-09-14T10:51:49.285Z,30.68
2022-09-14T10:54:34.355Z,31.48
2022-09-14T10:57:17.754Z,31.07
2022-09-14T10:59:55.160Z,30.90
2022-09-14T11:02:21.709Z,30.25
2022-09-14T11:05:01.391Z,30.63
2022-09-14T11:07:47.610Z,31.41
2022-09-14T11:10:23.138Z,32.08
2022-09-14T11:13:04.675Z,31.77
2022-09-14T11:15:37.226Z,31.55
2022-09-14T11:18:22.372Z,31.65
2022-09-14T11:20:54.898Z,31.55
2022-09-14T11:23:24.336Z,31.56
2022-09-14T11:25:53.830Z,32.02
2022-09-14T11:28:25.709Z,32.57
2022-09-14T11:31:08.864Z,31.23
2022-09-14T11:33:38.982Z,32.04
2022-09-14T11:36:17.333Z,32.16
2022-09-14T11:38:47.668Z,32.85
2022-09-14T11:41:26.258Z,32.11
2022-09-14T11:44:10.721Z,32.49
2022-09-14T11:46:39.581Z,32.99
2022-09-14T11:49:39.885Z,33.15
2022-09-14T11:52:10.110Z,32.46
2022-09-14T11:54:42.426Z,31.82
2022-09-14T11:57:17.530Z,32.77
2022-09-14T11:59:44.313Z,32.85
2022-09-14T12:02:31.119Z,32.33
2022-09-14T12:05:06.682Z,33.02
2022-09-14T12:07:50.070Z,32.50
2022-09-14T12:10:19.471Z,32.46
2022-09-14T12:12:51.115Z,32.70
2022-09-14T12:15:26.374Z,32.30
2022-09-14T12:17:55.122Z,31.53
2022-09-14T12:20:43.333Z,32.35
2022-09-14T12:23:09.751Z,32.67
2022-09-14T12:25:37.749Z,32.51
2022-09-14T12:28:24.115Z,32.10
2022-09-14T12:30:53.986Z,32.76
2022-09-14T12:33:32.714Z,33.11
2022-09-14T12:36:17.543Z,32.36
2022-09-14T12:38:50.054Z,32.81
2022-09-14T12:41:16.528Z,32.36
2022-09-14T12:43:48.870Z,32.31
2022-09-14T12:46:21.511Z,31.65
2022-09-14T12:48:48.125Z,31.25
2022-09-14T12:51:32.752Z,31.38
2022-09-14T12:54:02.152Z,31.42
2022-09-14T12:56:35.073Z,31.37
2022-09-14T12:59:01.578Z,31.66
2022-09-14T13:01:34.144Z,31.32
2022-09-14T13:04:02.104Z,31.51
2022-09-14T13:06:40.428Z,31.23
2022-09-14T13:09:13.400Z,31.42
2022-09-14T13:11:41.171Z,31.88
2022-09-14T13:14:13.860Z,31.92
2022-09-14T13:16:44.259Z,32.32
2022-09-14T13:19:27.438Z,32.41
2022-09-14T13:21:55.626Z,32.61
2022-09-14T13:24:23.847Z,33.06
2022-09-14T13:26:50.482Z,33.26
2022-09-14T13:29:17.112Z,32.77
2022-09-14T13:31:44.881Z,32.75
2022-09-14T13:34:25.603Z,32.79
2022-09-14T13:36:52.194Z,33.33
2022-09-14T13:39:40.110Z,32.78
2022-09-14T13:42:06.862Z,32.96
2022-09-14T13:44:34.817Z,32.79
2022-09-14T13:47:02.713Z,33.17
2022-09-14T13:49:29.572Z,33.75
2022-09-14T13:52:16.862Z,33.38
2022-09-14T13:54:43.649Z,33.39
2022-09-14T13:57:17.254Z,33.77
2022-09-14T14:00:02.541Z,33.50
2022-09-14T14:02:32.856Z,33.52
2022-09-14T14:04:59.626Z,34.24
2022-09-14T14:07:36.377Z,33.28
2022-09-14T14:10:04.102Z,33.51
2022-09-14T14:12:33.397Z,33.25
2022-09-14T14:15:01.111Z,32.84
2022-09-14T14:17:27.654Z,33.46
2022-09-14T14:19:55.495Z,33.79
2022-09-14T14:22:27.131Z,33.36
2022-09-14T14:27:44.814Z,32.80
2022-09-14T14:30:18.786Z,32.94
2022-09-14T14:32:51.812Z,31.97
2022-09-14T14:35:22.263Z,32.74
2022-09-14T14:37:48.966Z,33.13
2022-09-14T14:40:16.032Z,32.17
2022-09-14T14:42:42.835Z,32.87
2022-09-14T14:45:13.694Z,33.30
2022-09-14T14:47:40.652Z,32.92
2022-09-14T14:50:14.061Z,33.52
2022-09-14T14:52:40.605Z,32.98
2022-09-14T14:55:08.675Z,33.27
2022-09-14T14:57:35.429Z,32.50
2022-09-14T15:00:02.153Z,32.41
2022-09-14T15:02:28.669Z,31.71
2022-09-14T15:04:55.166Z,31.93
2022-09-14T15:07:21.645Z,31.85
2022-09-14T15:09:48.221Z,32.13
2022-09-14T15:12:14.766Z,31.94
2022-09-14T15:14:41.346Z,31.81
2022-09-14T15:17:07.994Z,31.67
2022-09-14T15:19:34.562Z,31.80
2022-09-14T15:22:01.849Z,31.39
2022-09-14T15:24:28.987Z,30.95
2022-09-14T15:26:55.727Z,30.71
2022-09-14T15:29:22.202Z,30.32
2022-09-14T15:31:48.694Z,29.93
2022-09-14T15:34:15.176Z,29.69
2022-09-14T15:36:43.473Z,29.54
2022-09-14T15:39:11.804Z,29.63
2022-09-14T15:41:38.614Z,29.19
2022-09-14T15:44:05.433Z,29.22
2022-09-14T15:46:32.061Z,28.87
2022-09-14T15:48:59.048Z,28.39
2022-09-14T15:51:25.491Z,28.52
2022-09-14T15:53:52.974Z,28.51
2022-09-14T15:56:19.477Z,28.29
2022-09-14T15:58:48.123Z,27.42
2022-09-14T16:01:16.060Z,27.85
2022-09-14T16:03:42.771Z,27.76
2022-09-14T16:06:09.926Z,27.76
2022-09-14T16:08:37.195Z,27.79
2022-09-14T16:11:04.445Z,27.49
2022-09-14T16:13:31.403Z,27.40
2022-09-14T16:16:04.345Z,27.39
2022-09-14T16:18:30.852Z,27.48
2022-09-14T16:21:02.798Z,27.49
2022-09-14T16:23:29.290Z,27.60
2022-09-14T16:25:55.707Z,26.98
2022-09-14T16:28:22.235Z,26.79
2022-09-14T16:30:48.666Z,26.47
2022-09-14T16:33:15.914Z,26.53
2022-09-14T16:35:42.330Z,26.51
2022-09-14T16:38:08.846Z,26.39
2022-09-14T16:40:38.999Z,26.23
2022-09-14T16:43:08.715Z,26.07
2022-09-14T16:45:35.214Z,25.91
2022-09-14T16:48:01.822Z,25.62
2022-09-14T16:50:28.256Z,25.67
2022-09-14T16:52:54.683Z,25.65
2022-09-14T16:55:21.212Z,25.82
2022-09-14T16:57:47.673Z,25.77
2022-09-14T17:00:14.328Z,25.92
2022-09-14T17:02:40.820Z,25.79
2022-09-14T17:05:07.757Z,25.55
2022-09-14T17:07:34.252Z,25.49
2022-09-14T17:10:00.701Z,25.26
2022-09-14T17:12:27.266Z,25.17
2022-09-14T17:14:53.738Z,25.23
2022-09-14T17:17:20.918Z,25.38
2022-09-14T17:19:47.357Z,25.62
2022-09-14T17:22:14.290Z,25.73
2022-09-14T17:24:40.845Z,25.79
2022-09-14T17:27:07.375Z,25.60
2022-09-14T17:29:36.784Z,25.23
2022-09-14T17:32:03.267Z,24.83
2022-09-14T17:34:29.804Z,24.78
2022-09-14T17:36:56.246Z,24.95
2022-09-14T17:39:22.683Z,25.05
2022-09-14T17:41:49.128Z,24.66
2022-09-14T17:44:16.023Z,24.43
2022-09-14T17:46:51.735Z,24.05
2022-09-14T17:49:20.760Z,23.90
2022-09-14T17:51:48.129Z,23.87
2022-09-14T17:54:14.551Z,23.77
2022-09-14T17:56:41.016Z,23.68
2022-09-14T17:59:09.968Z,23.57
2022-09-14T18:01:36.429Z,23.49
2022-09-14T18:04:04.978Z,23.65
2022-09-14T18:06:32.645Z,23.44
2022-09-14T18:09:00.429Z,23.34
2022-09-14T18:11:27.025Z,23.18
2022-09-14T18:13:53.522Z,23.22
2022-09-14T18:16:21.485Z,23.07
2022-09-14T18:18:48.267Z,23.35
2022-09-14T18:21:16.879Z,23.53
2022-09-14T18:23:43.799Z,23.92
2022-09-14T18:26:10.277Z,23.89
2022-09-14T18:28:36.757Z,23.90
2022-09-14T18:31:04.813Z,23.82
2022-09-14T18:33:31.430Z,24.00
2022-09-14T18:35:57.905Z,23.84
2022-09-14T18:38:24.694Z,23.77
2022-09-14T18:40:51.161Z,23.88
2022-09-14T18:43:17.612Z,23.89
2022-09-14T18:45:44.814Z,23.85
2022-09-14T18:48:11.740Z,23.90
2022-09-14T18:50:39.032Z,23.98
2022-09-14T18:53:05.661Z,23.89
2022-09-14T18:55:33.170Z,23.68
2022-09-14T18:58:00.125Z,24.00
2022-09-14T19:00:26.523Z,23.84
2022-09-14T19:02:53.822Z,23.77
2022-09-14T19:05:20.946Z,23.80
2022-09-14T19:07:47.553Z,23.60
2022-09-14T19:10:14.369Z,23.58
2022-09-14T19:12:41.372Z,23.64
2022-09-14T19:15:08.266Z,23.65
2022-09-14T19:17:34.672Z,23.66
2022-09-14T19:20:01.202Z,23.78
2022-09-14T19:22:28.777Z,23.66
2022-09-14T19:24:55.209Z,23.63
2022-09-14T19:27:21.666Z,23.69
2022-09-14T19:29:48.088Z,23.76
2022-09-14T19:32:14.554Z,23.85
2022-09-14T19:34:41.089Z,23.72
2022-09-14T19:37:07.558Z,23.76
2022-09-14T19:39:34.013Z,23.85
2022-09-14T19:42:00.432Z,23.85
2022-09-14T19:44:26.933Z,23.89
2022-09-14T19:46:53.405Z,23.98
2022-09-14T19:49:22.429Z,24.05
2022-09-14T19:51:48.942Z,24.16
2022-09-14T19:54:15.826Z,24.07
2022-09-14T19:56:42.541Z,24.21
2022-09-14T19:59:09.299Z,24.21
2022-09-14T20:01:37.328Z,24.15
2022-09-14T20:04:04.891Z,24.13
2022-09-14T20:06:32.895Z,24.26
2022-09-14T20:09:01.464Z,24.17
2022-09-14T20:11:28.851Z,24.01
2022-09-14T20:13:56.442Z,23.86
2022-09-14T20:16:24.792Z,23.65
2022-09-14T20:18:51.973Z,23.61
2022-09-14T20:21:20.101Z,23.47
2022-09-14T20:24:11.496Z,23.37
2022-09-14T20:26:33.427Z,23.26
2022-09-14T20:29:01.216Z,23.13
2022-09-14T20:31:28.561Z,23.22
2022-09-14T20:33:55.831Z,23.33
2022-09-14T20:36:23.530Z,23.41
2022-09-14T20:38:54.443Z,23.02
2022-09-14T20:41:21.914Z,22.81
2022-09-14T20:43:49.082Z,22.67
2022-09-14T20:46:23.351Z,22.56
2022-09-14T20:48:50.288Z,22.16
2022-09-14T20:51:20.697Z,22.01
2022-09-14T20:53:47.999Z,21.95
2022-09-14T20:56:15.843Z,22.08
2022-09-14T20:58:42.454Z,22.11
2022-09-14T21:01:13.603Z,22.12
2022-09-14T21:03:42.238Z,22.35
2022-09-14T21:06:10.270Z,22.62
2022-09-14T21:08:37.498Z,22.69
2022-09-14T21:11:06.205Z,22.63
2022-09-14T21:13:33.379Z,22.66
2022-09-14T21:16:07.250Z,22.71
2022-09-14T21:18:33.978Z,22.70
2022-09-14T21:21:04.003Z,22.68
2022-09-14T21:23:30.449Z,22.73
2022-09-14T21:25:56.918Z,22.77
2022-09-14T21:28:24.207Z,22.77
2022-09-14T21:30:50.689Z,22.70
2022-09-14T21:33:17.361Z,22.66
2022-09-14T21:35:43.982Z,22.36
2022-09-14T21:38:11.141Z,22.30
2022-09-14T21:40:37.597Z,22.26
2022-09-14T21:43:04.042Z,22.22
2022-09-14T21:45:30.516Z,22.26
2022-09-14T21:47:56.915Z,22.12
2022-09-14T21:50:23.744Z,22.17
2022-09-14T21:52:50.168Z,22.04
2022-09-14T21:55:16.574Z,22.04
2022-09-14T21:57:43.062Z,22.02
2022-09-14T22:00:10.750Z,21.98
2022-09-14T22:02:37.293Z,21.93
2022-09-14T22:05:03.939Z,22.03
2022-09-14T22:07:30.384Z,21.96
2022-09-14T22:09:56.871Z,22.08
2022-09-14T22:12:23.349Z,22.13
2022-09-14T22:14:49.807Z,22.17
2022-09-14T22:17:17.868Z,22.21
2022-09-14T22:19:44.945Z,22.33
2022-09-14T22:22:11.358Z,22.71
2022-09-14T22:24:38.890Z,22.48
2022-09-14T22:27:09.549Z,22.40
2022-09-14T22:29:36.673Z,22.28
2022-09-14T22:32:04.293Z,22.30
2022-09-14T22:34:30.936Z,22.40
2022-09-14T22:36:57.458Z,22.37
2022-09-14T22:39:23.947Z,22.36
2022-09-14T22:41:50.656Z,22.48
2022-09-14T22:44:17.053Z,22.40
2022-09-14T22:46:43.722Z,22.28
2022-09-14T22:49:10.217Z,22.27
2022-09-14T22:51:36.813Z,22.32
2022-09-14T22:54:03.945Z,22.19
2022-09-14T22:56:31.941Z,22.28
2022-09-14T22:58:58.492Z,22.43
2022-09-14T23:01:26.606Z,22.45
2022-09-14T23:03:58.323Z,22.49
2022-09-14T23:06:51.121Z,22.42
2022-09-14T23:09:20.272Z,22.50
2022-09-14T23:11:46.991Z,22.29
2022-09-14T23:14:14.243Z,22.27
2022-09-14T23:16:41.562Z,22.46
2022-09-14T23:19:08.360Z,22.50
2022-09-14T23:21:35.331Z,22.33
2022-09-14T23:24:03.609Z,22.46
2022-09-14T23:26:30.515Z,22.28
2022-09-14T23:29:01.388Z,22.42
2022-09-14T23:31:29.153Z,22.56
2022-09-14T23:33:56.621Z,22.13
2022-09-14T23:36:23.538Z,21.78
2022-09-14T23:38:50.514Z,21.64
2022-09-14T23:41:17.582Z,21.70
2022-09-14T23:43:44.166Z,21.66
2022-09-14T23:46:10.946Z,21.64
2022-09-14T23:48:37.571Z,21.82
2022-09-14T23:51:04.875Z,21.83
2022-09-14T23:53:31.528Z,21.64
2022-09-14T23:55:58.402Z,21.34
2022-09-14T23:58:25.275Z,21.27
